createdAt,value
2019-04-14T00:02:25.109Z,2.51
2019-04-14T00:04:52.954Z,2.48
2019-04-14T00:07:18.990Z,2.44
2019-04-14T00:09:45.308Z,2.39
2019-04-14T00:12:12.078Z,2.37
2019-04-14T00:14:38.312Z,2.37
2019-04-14T00:17:04.347Z,2.33
2019-04-14T00:19:30.631Z,2.30
2019-04-14T00:21:58.708Z,2.30
2019-04-14T00:24:24.936Z,2.31
2019-04-14T00:26:51.004Z,2.29
2019-04-14T00:29:17.386Z,2.27
2019-04-14T00:31:43.347Z,2.24
2019-04-14T00:34:11.374Z,2.21
2019-04-14T00:36:39.480Z,2.19
2019-04-14T00:39:18.314Z,2.16
2019-04-14T00:41:55.584Z,2.12
2019-04-14T00:44:39.438Z,2.06
2019-04-14T00:47:11.378Z,1.99
2019-04-14T00:49:37.623Z,1.95
2019-04-14T00:52:03.804Z,1.90
2019-04-14T00:54:30.440Z,1.87
2019-04-14T00:56:56.386Z,1.85
2019-04-14T00:59:22.329Z,1.85
2019-04-14T01:01:48.472Z,1.86
2019-04-14T01:04:14.442Z,1.85
2019-04-14T01:06:40.507Z,1.86
2019-04-14T01:09:08.554Z,1.83
2019-04-14T01:11:35.688Z,1.81
2019-04-14T01:14:01.644Z,1.75
2019-04-14T01:16:28.147Z,1.70
2019-04-14T01:18:54.019Z,1.68
2019-04-14T01:21:19.908Z,1.66
2019-04-14T01:23:45.964Z,1.62
2019-04-14T01:26:11.935Z,1.58
2019-04-14T01:28:37.916Z,1.54
2019-04-14T01:31:03.946Z,1.52
2019-04-14T01:33:29.823Z,1.51
2019-04-14T01:35:55.740Z,1.52
2019-04-14T01:38:21.676Z,1.51
2019-04-14T01:40:48.758Z,1.50
2019-04-14T01:43:14.788Z,1.50
2019-04-14T01:45:40.879Z,1.47
2019-04-14T01:48:06.854Z,1.46
2019-04-14T01:50:40.927Z,1.44
2019-04-14T01:53:11.976Z,1.08
2019-04-14T01:55:54.943Z,1.40
2019-04-14T01:58:22.924Z,1.40
2019-04-14T02:00:51.318Z,1.36
2019-04-14T02:03:17.355Z,1.35
2019-04-14T02:05:43.499Z,1.32
2019-04-14T02:08:09.461Z,1.30
2019-04-14T02:10:35.373Z,1.28
2019-04-14T02:13:02.728Z,1.25
2019-04-14T02:15:28.743Z,1.23
2019-04-14T02:17:54.765Z,1.21
2019-04-14T02:20:20.769Z,1.20
2019-04-14T02:22:46.717Z,1.19
2019-04-14T02:25:12.728Z,1.18
2019-04-14T02:27:38.786Z,1.17
2019-04-14T02:30:07.314Z,1.14
2019-04-14T02:32:57.231Z,1.13
2019-04-14T02:35:28.543Z,1.14
2019-04-14T02:40:34.861Z,1.12
2019-04-14T02:42:51.951Z,1.07
2019-04-14T02:45:19.877Z,1.05
2019-04-14T02:50:14.222Z,0.96
2019-04-14T02:52:46.554Z,0.92
2019-04-14T02:55:04.482Z,0.90
2019-04-14T03:02:38.525Z,0.85
2019-04-14T03:05:11.990Z,0.86
2019-04-14T03:07:34.173Z,0.86
2019-04-14T03:10:25.927Z,0.83
2019-04-14T03:12:28.025Z,0.81
2019-04-14T03:17:32.022Z,0.35
2019-04-14T03:20:15.286Z,0.64
2019-04-14T03:22:43.886Z,0.59
2019-04-14T03:25:16.718Z,0.56
2019-04-14T03:28:12.639Z,0.55
2019-04-14T03:35:51.456Z,0.54
2019-04-14T03:37:56.664Z,0.52
2019-04-14T03:40:28.534Z,0.51
2019-04-14T03:45:30.052Z,0.45
2019-04-14T03:47:56.268Z,0.40
2019-04-14T03:50:18.424Z,0.35
2019-04-14T03:52:53.274Z,0.35
2019-04-14T03:54:56.647Z,0.35
2019-04-14T03:57:08.930Z,0.34
2019-04-14T03:59:34.883Z,0.35
2019-04-14T04:02:00.938Z,0.35
2019-04-14T04:04:27.457Z,0.36
2019-04-14T04:06:53.561Z,0.35
2019-04-14T04:09:21.472Z,0.34
2019-04-14T04:11:47.658Z,0.28
2019-04-14T04:14:13.938Z,0.24
2019-04-14T04:16:53.644Z,0.19
2019-04-14T04:19:27.307Z,0.16
2019-04-14T04:22:11.429Z,0.14
2019-04-14T04:24:39.212Z,0.12
2019-04-14T04:27:06.951Z,0.09
2019-04-14T04:29:41.693Z,0.08
2019-04-14T04:32:27.851Z,0.09
2019-04-14T04:35:04.601Z,0.13
2019-04-14T04:37:49.784Z,0.15
2019-04-14T04:40:17.972Z,0.15
2019-04-14T04:42:43.803Z,0.15
2019-04-14T04:45:10.393Z,0.14
2019-04-14T04:47:36.429Z,0.14
2019-04-14T04:50:02.609Z,0.14
2019-04-14T04:52:28.466Z,0.14
2019-04-14T04:54:54.504Z,0.15
2019-04-14T04:57:20.379Z,0.18
2019-04-14T04:59:47.357Z,-0.16
2019-04-14T05:02:13.667Z,0.25
2019-04-14T05:04:39.651Z,0.29
2019-04-14T05:07:05.656Z,0.32
2019-04-14T05:09:36.491Z,0.35
2019-04-14T05:12:13.539Z,0.37
2019-04-14T05:14:41.544Z,0.38
2019-04-14T05:17:07.909Z,0.03
2019-04-14T05:19:36.522Z,0.44
2019-04-14T05:22:02.730Z,0.47
2019-04-14T05:24:29.085Z,0.49
2019-04-14T05:26:54.916Z,0.53
2019-04-14T05:29:21.114Z,0.56
2019-04-14T05:31:46.935Z,0.60
2019-04-14T05:34:12.971Z,0.63
2019-04-14T05:36:38.964Z,0.67
2019-04-14T05:39:05.234Z,0.71
2019-04-14T05:41:31.124Z,0.75
2019-04-14T05:44:01.177Z,0.77
2019-04-14T05:46:25.263Z,0.82
2019-04-14T05:48:51.465Z,0.88
2019-04-14T05:51:19.910Z,0.93
2019-04-14T05:53:45.847Z,0.97
2019-04-14T05:56:12.152Z,1.01
2019-04-14T05:58:38.449Z,1.07
2019-04-14T06:01:04.742Z,1.10
2019-04-14T06:03:30.701Z,1.17
2019-04-14T06:05:56.724Z,1.22
2019-04-14T06:08:22.662Z,1.27
2019-04-14T06:10:48.546Z,1.34
2019-04-14T06:13:14.468Z,1.38
2019-04-14T06:15:40.348Z,1.44
2019-04-14T06:18:06.236Z,1.51
2019-04-14T06:20:32.188Z,1.55
2019-04-14T06:22:58.050Z,1.60
2019-04-14T06:25:23.967Z,1.65
2019-04-14T06:27:50.004Z,1.69
2019-04-14T06:30:18.353Z,1.75
2019-04-14T06:32:45.729Z,1.79
2019-04-14T06:35:19.555Z,1.85
2019-04-14T06:37:50.194Z,1.91
2019-04-14T06:40:16.093Z,1.96
2019-04-14T06:42:42.066Z,2.02
2019-04-14T06:45:07.950Z,2.07
2019-04-14T06:47:33.828Z,2.13
2019-04-14T06:49:59.829Z,2.21
2019-04-14T06:52:25.731Z,2.28
2019-04-14T06:54:51.585Z,2.35
2019-04-14T06:57:17.517Z,2.41
2019-04-14T06:59:43.407Z,2.46
2019-04-14T07:02:09.401Z,2.53
2019-04-14T07:04:35.448Z,2.57
2019-04-14T07:07:01.311Z,2.63
2019-04-14T07:09:27.175Z,2.69
2019-04-14T07:11:53.318Z,2.75
2019-04-14T07:14:19.283Z,2.82
2019-04-14T07:16:45.133Z,2.88
2019-04-14T07:19:11.178Z,2.96
2019-04-14T07:21:37.147Z,3.05
2019-04-14T07:24:03.133Z,3.14
2019-04-14T07:26:29.250Z,3.23
2019-04-14T07:28:56.802Z,3.31
2019-04-14T07:31:24.674Z,3.42
2019-04-14T07:33:52.555Z,3.51
2019-04-14T07:36:36.899Z,3.61
2019-04-14T07:39:06.354Z,3.67
2019-04-14T07:41:43.064Z,3.74
2019-04-14T07:44:11.011Z,3.81
2019-04-14T07:46:53.752Z,3.88
2019-04-14T07:49:21.606Z,3.93
2019-04-14T07:51:49.389Z,3.97
2019-04-14T07:54:17.177Z,4.02
2019-04-14T07:56:50.964Z,4.07
2019-04-14T07:59:18.836Z,4.14
2019-04-14T08:01:52.488Z,4.21
2019-04-14T08:04:22.855Z,4.29
2019-04-14T08:06:50.113Z,4.39
2019-04-14T08:09:16.070Z,4.48
2019-04-14T08:11:41.952Z,4.56
2019-04-14T08:14:07.804Z,4.64
2019-04-14T08:16:33.820Z,4.71
2019-04-14T08:18:59.691Z,4.84
2019-04-14T08:21:25.670Z,4.98
2019-04-14T08:23:51.748Z,5.08
2019-04-14T08:26:17.552Z,5.15
2019-04-14T08:28:43.505Z,5.26
2019-04-14T08:31:09.519Z,5.36
2019-04-14T08:33:35.476Z,5.47
2019-04-14T08:36:01.447Z,5.59
2019-04-14T08:38:27.445Z,5.71
2019-04-14T08:40:53.415Z,5.84
2019-04-14T08:43:30.015Z,5.93
2019-04-14T08:46:14.032Z,6.00
2019-04-14T08:48:45.008Z,6.07
2019-04-14T08:51:15.635Z,6.11
2019-04-14T08:53:49.223Z,6.16
2019-04-14T08:56:35.131Z,6.22
2019-04-14T08:59:06.017Z,6.29
2019-04-14T09:01:42.648Z,6.38
2019-04-14T09:04:16.194Z,6.45
2019-04-14T09:06:43.950Z,6.53
2019-04-14T09:09:14.592Z,6.61
2019-04-14T09:11:51.171Z,6.70
2019-04-14T09:14:17.040Z,6.78
2019-04-14T09:16:42.993Z,6.87
2019-04-14T09:19:09.247Z,6.96
2019-04-14T09:21:35.122Z,7.06
2019-04-14T09:24:01.072Z,7.17
2019-04-14T09:26:27.132Z,7.26
2019-04-14T09:28:53.082Z,7.37
2019-04-14T09:31:19.046Z,7.48
2019-04-14T09:33:45.024Z,7.64
2019-04-14T09:36:11.095Z,7.85
2019-04-14T09:38:36.992Z,8.08
2019-04-14T09:41:03.739Z,8.31
2019-04-14T09:43:29.619Z,8.53
2019-04-14T09:45:55.484Z,8.73
2019-04-14T09:48:21.426Z,8.96
2019-04-14T09:50:47.304Z,9.12
2019-04-14T09:53:13.271Z,9.29
2019-04-14T09:55:39.237Z,9.42
2019-04-14T09:58:05.115Z,9.54
2019-04-14T10:00:32.887Z,9.71
2019-04-14T10:02:58.917Z,9.84
2019-04-14T10:05:24.788Z,10.02
2019-04-14T10:07:50.636Z,10.15
2019-04-14T10:10:16.611Z,10.35
2019-04-14T10:12:42.461Z,10.51
2019-04-14T10:15:08.421Z,10.67
2019-04-14T10:17:34.400Z,10.83
2019-04-14T10:20:00.297Z,10.95
2019-04-14T10:22:33.783Z,11.05
2019-04-14T10:24:53.961Z,11.11
2019-04-14T10:27:19.816Z,11.24
2019-04-14T10:29:45.823Z,11.40
2019-04-14T10:32:11.745Z,11.55
2019-04-14T10:34:37.620Z,11.66
2019-04-14T10:37:03.493Z,11.95
2019-04-14T10:39:29.512Z,12.22
2019-04-14T10:41:55.445Z,12.34
2019-04-14T10:44:21.384Z,12.43
2019-04-14T10:46:47.341Z,12.54
2019-04-14T10:49:13.212Z,12.63
2019-04-14T10:51:39.159Z,12.75
2019-04-14T10:54:05.211Z,12.93
2019-04-14T10:56:31.076Z,13.07
2019-04-14T10:58:56.974Z,13.23
2019-04-14T11:01:23.033Z,13.37
2019-04-14T11:03:48.989Z,13.52
2019-04-14T11:06:31.696Z,13.62
2019-04-14T11:08:57.611Z,13.71
2019-04-14T11:11:23.472Z,13.76
2019-04-14T11:13:49.413Z,13.78
2019-04-14T11:16:15.313Z,13.81
2019-04-14T11:18:41.193Z,13.85
2019-04-14T11:21:07.179Z,13.95
2019-04-14T11:23:33.053Z,14.03
2019-04-14T11:25:58.890Z,14.12
2019-04-14T11:28:24.939Z,14.16
2019-04-14T11:30:50.935Z,14.19
2019-04-14T11:33:36.724Z,14.20
2019-04-14T11:36:04.999Z,14.25
2019-04-14T11:38:32.761Z,14.32
2019-04-14T11:41:00.680Z,14.35
2019-04-14T11:43:26.772Z,14.40
2019-04-14T11:45:52.726Z,14.41
2019-04-14T11:48:18.778Z,14.41
2019-04-14T11:50:44.668Z,14.45
2019-04-14T11:53:10.925Z,14.46
2019-04-14T11:55:37.059Z,14.43
2019-04-14T11:58:03.012Z,14.45
2019-04-14T12:00:48.752Z,14.43
2019-04-14T12:03:25.158Z,14.46
2019-04-14T12:06:09.314Z,14.50
2019-04-14T12:08:51.838Z,14.47
2019-04-14T12:11:17.873Z,14.35
2019-04-14T12:13:43.843Z,14.29
2019-04-14T12:16:09.677Z,14.33
2019-04-14T12:18:35.701Z,14.40
2019-04-14T12:21:01.574Z,14.47
2019-04-14T12:23:27.466Z,14.44
2019-04-14T12:26:04.651Z,14.46
2019-04-14T12:28:21.938Z,14.47
2019-04-14T12:30:48.964Z,14.43
2019-04-14T12:33:15.146Z,14.43
2019-04-14T12:35:41.012Z,14.46
2019-04-14T12:38:06.984Z,14.52
2019-04-14T12:40:33.074Z,14.59
2019-04-14T12:43:03.480Z,14.68
2019-04-14T12:45:31.359Z,14.75
2019-04-14T12:48:15.578Z,14.73
2019-04-14T12:50:43.338Z,14.75
2019-04-14T12:53:09.206Z,14.71
2019-04-14T12:55:35.368Z,14.70
2019-04-14T12:58:05.997Z,14.68
2019-04-14T13:00:33.771Z,14.63
2019-04-14T13:02:59.865Z,14.57
2019-04-14T13:05:25.732Z,14.54
2019-04-14T13:07:51.629Z,14.55
2019-04-14T13:10:17.722Z,14.60
2019-04-14T13:12:43.581Z,14.62
2019-04-14T13:15:09.532Z,14.66
2019-04-14T13:17:35.492Z,14.67
2019-04-14T13:20:01.767Z,14.72
2019-04-14T13:22:33.801Z,14.73
2019-04-14T13:24:55.415Z,14.69
2019-04-14T13:27:23.251Z,14.63
2019-04-14T13:29:48.965Z,14.55
2019-04-14T13:32:15.067Z,14.42
2019-04-14T13:34:40.937Z,14.34
2019-04-14T13:37:06.792Z,14.27
2019-04-14T13:39:32.996Z,14.16
2019-04-14T13:41:58.965Z,14.03
2019-04-14T13:44:24.813Z,13.83
2019-04-14T13:46:50.809Z,13.68
2019-04-14T13:49:16.688Z,13.59
2019-04-14T13:51:42.548Z,13.48
2019-04-14T13:54:08.588Z,13.36
2019-04-14T13:56:34.441Z,13.27
2019-04-14T13:59:00.288Z,13.22
2019-04-14T14:01:26.374Z,13.21
2019-04-14T14:03:52.224Z,13.23
2019-04-14T14:06:18.069Z,13.15
2019-04-14T14:08:44.112Z,13.05
2019-04-14T14:11:12.002Z,12.97
2019-04-14T14:13:39.730Z,12.87
2019-04-14T14:16:10.181Z,12.74
2019-04-14T14:18:37.976Z,12.70
2019-04-14T14:21:19.648Z,12.63
2019-04-14T14:23:50.191Z,12.55
2019-04-14T14:26:20.763Z,12.51
2019-04-14T14:28:46.595Z,12.41
2019-04-14T14:31:12.457Z,12.34
2019-04-14T14:33:38.461Z,12.30
2019-04-14T14:36:04.414Z,12.26
2019-04-14T14:38:30.312Z,12.24
2019-04-14T14:40:57.668Z,12.16
2019-04-14T14:43:23.529Z,12.08
2019-04-14T14:45:51.344Z,12.00
2019-04-14T14:48:22.015Z,11.95
2019-04-14T14:50:55.650Z,11.87
2019-04-14T14:53:22.341Z,11.85
2019-04-14T14:55:48.379Z,11.85
2019-04-14T14:58:14.362Z,11.78
2019-04-14T15:00:40.304Z,11.72
2019-04-14T15:03:06.670Z,11.68
2019-04-14T15:05:32.636Z,11.64
2019-04-14T15:07:58.503Z,11.62
2019-04-14T15:10:24.479Z,11.60
2019-04-14T15:12:50.455Z,11.58
2019-04-14T15:15:16.354Z,11.58
2019-04-14T15:17:42.404Z,11.58
2019-04-14T15:20:08.357Z,11.61
2019-04-14T15:22:34.307Z,11.60
2019-04-14T15:25:00.266Z,11.63
2019-04-14T15:27:26.339Z,11.65
2019-04-14T15:29:52.212Z,11.66
2019-04-14T15:32:18.181Z,11.67
2019-04-14T15:34:44.137Z,11.68
2019-04-14T15:37:10.004Z,11.68
2019-04-14T15:39:37.566Z,11.71
2019-04-14T15:42:03.851Z,11.75
2019-04-14T15:44:29.685Z,11.78
2019-04-14T15:46:55.639Z,11.79
2019-04-14T15:49:21.893Z,11.72
2019-04-14T15:51:47.854Z,11.66
2019-04-14T15:54:13.985Z,11.61
2019-04-14T15:56:44.889Z,11.58
2019-04-14T15:59:29.505Z,11.57
2019-04-14T16:02:13.755Z,11.53
2019-04-14T16:04:41.822Z,11.40
2019-04-14T16:07:09.662Z,11.39
2019-04-14T16:09:37.414Z,11.35
2019-04-14T16:12:05.398Z,11.31
2019-04-14T16:14:47.887Z,11.22
2019-04-14T16:17:27.781Z,11.15
2019-04-14T16:19:55.597Z,11.11
2019-04-14T16:22:21.449Z,11.04
2019-04-14T16:24:47.442Z,11.00
2019-04-14T16:27:21.286Z,10.96
2019-04-14T16:30:07.198Z,10.86
2019-04-14T16:32:37.575Z,10.80
2019-04-14T16:35:05.646Z,10.74
2019-04-14T16:37:31.606Z,10.67
2019-04-14T16:39:57.461Z,10.58
2019-04-14T16:42:23.328Z,10.51
2019-04-14T16:44:49.371Z,10.45
2019-04-14T16:47:15.242Z,10.37
2019-04-14T16:49:42.036Z,10.34
2019-04-14T16:52:09.932Z,10.31
2019-04-14T16:54:55.595Z,10.18
2019-04-14T16:57:32.479Z,10.10
2019-04-14T16:59:58.562Z,10.02
2019-04-14T17:02:24.522Z,9.93
2019-04-14T17:04:50.538Z,9.83
2019-04-14T17:07:16.511Z,9.79
2019-04-14T17:09:42.360Z,9.75
2019-04-14T17:12:08.512Z,9.67
2019-04-14T17:14:41.989Z,9.60
2019-04-14T17:17:09.935Z,9.54
2019-04-14T17:19:43.707Z,9.47
2019-04-14T17:22:14.154Z,9.43
2019-04-14T17:24:58.463Z,9.39
2019-04-14T17:27:26.577Z,9.35
2019-04-14T17:29:59.990Z,9.26
2019-04-14T17:32:33.581Z,9.20
2019-04-14T17:35:07.390Z,9.14
2019-04-14T17:37:44.035Z,9.09
2019-04-14T17:40:12.034Z,9.05
2019-04-14T17:42:39.799Z,9.00
2019-04-14T17:45:13.916Z,8.97
2019-04-14T17:47:44.288Z,8.92
2019-04-14T17:50:12.178Z,8.85
2019-04-14T17:52:40.003Z,8.81
2019-04-14T17:55:10.895Z,8.76
2019-04-14T17:57:41.907Z,8.71
2019-04-14T18:00:24.936Z,8.66
2019-04-14T18:02:58.811Z,8.62
2019-04-14T18:05:41.335Z,8.56
2019-04-14T18:08:18.046Z,8.53
2019-04-14T18:11:03.853Z,8.49
2019-04-14T18:13:40.792Z,8.45
2019-04-14T18:16:08.563Z,8.41
2019-04-14T18:18:36.314Z,8.38
2019-04-14T18:21:04.303Z,8.32
2019-04-14T18:23:30.184Z,8.26
2019-04-14T18:25:56.124Z,8.19
2019-04-14T18:28:24.087Z,8.13
2019-04-14T18:30:51.922Z,8.08
2019-04-14T18:33:25.584Z,8.03
2019-04-14T18:35:53.360Z,7.99
2019-04-14T18:38:23.993Z,7.90
2019-04-14T18:40:51.983Z,7.84
2019-04-14T18:43:22.372Z,7.77
2019-04-14T18:45:59.326Z,7.69
2019-04-14T18:48:33.043Z,7.60
2019-04-14T18:51:13.021Z,7.51
2019-04-14T18:53:52.463Z,7.43
2019-04-14T18:56:22.959Z,7.35
2019-04-14T18:58:53.520Z,7.28
2019-04-14T19:01:21.275Z,7.21
2019-04-14T19:03:47.353Z,7.13
2019-04-14T19:06:13.308Z,7.06
2019-04-14T19:08:39.168Z,6.99
2019-04-14T19:11:12.840Z,6.95
2019-04-14T19:13:40.529Z,6.89
2019-04-14T19:16:08.334Z,6.83
2019-04-14T19:18:51.107Z,6.77
2019-04-14T19:21:18.952Z,6.69
2019-04-14T19:23:46.519Z,6.58
2019-04-14T19:26:12.760Z,6.52
2019-04-14T19:28:38.739Z,6.45
2019-04-14T19:31:04.719Z,6.39
2019-04-14T19:33:30.826Z,6.31
2019-04-14T19:35:56.678Z,6.24
2019-04-14T19:38:22.549Z,6.17
2019-04-14T19:40:48.546Z,6.08
2019-04-14T19:43:23.696Z,6.02
2019-04-14T19:45:42.103Z,5.98
2019-04-14T19:48:08.225Z,5.92
2019-04-14T19:50:34.113Z,5.89
2019-04-14T19:52:59.966Z,5.83
2019-04-14T19:55:25.991Z,5.77
2019-04-14T19:57:51.869Z,5.73
2019-04-14T20:00:18.044Z,5.68
2019-04-14T20:02:44.056Z,5.63
2019-04-14T20:05:11.290Z,5.56
2019-04-14T20:07:37.152Z,5.49
2019-04-14T20:10:04.911Z,5.42
2019-04-14T20:12:30.777Z,5.36
2019-04-14T20:14:56.650Z,5.32
2019-04-14T20:17:36.649Z,5.27
2019-04-14T20:20:17.517Z,5.22
2019-04-14T20:23:00.505Z,5.17
2019-04-14T20:25:44.813Z,5.12
2019-04-14T20:28:27.722Z,5.06
2019-04-14T20:31:04.489Z,5.00
2019-04-14T20:33:30.448Z,4.92
2019-04-14T20:35:56.323Z,4.86
2019-04-14T20:38:22.292Z,4.80
2019-04-14T20:40:48.257Z,4.74
2019-04-14T20:43:14.113Z,4.68
2019-04-14T20:45:39.996Z,4.64
2019-04-14T20:48:06.122Z,4.58
2019-04-14T20:50:31.953Z,4.53
2019-04-14T20:52:57.846Z,4.47
2019-04-14T20:55:23.825Z,4.43
2019-04-14T20:57:49.772Z,4.40
2019-04-14T21:00:16.031Z,4.37
2019-04-14T21:03:00.355Z,4.34
2019-04-14T21:05:30.748Z,4.31
2019-04-14T21:08:04.390Z,4.26
2019-04-14T21:10:32.140Z,4.20
2019-04-14T21:13:02.770Z,4.14
2019-04-14T21:15:30.647Z,4.08
2019-04-14T21:18:16.268Z,4.03
2019-04-14T21:20:50.028Z,4.00
2019-04-14T21:23:18.187Z,3.96
2019-04-14T21:26:01.361Z,3.90
2019-04-14T21:28:29.202Z,3.85
2019-04-14T21:31:15.312Z,3.80
2019-04-14T21:33:43.155Z,3.75
2019-04-14T21:36:13.807Z,3.72
2019-04-14T21:38:58.246Z,3.68
2019-04-14T21:41:34.637Z,3.62
2019-04-14T21:44:00.593Z,3.56
2019-04-14T21:46:26.460Z,3.50
2019-04-14T21:48:52.406Z,3.46
2019-04-14T21:51:18.529Z,3.41
2019-04-14T21:53:45.169Z,3.36
2019-04-14T21:56:13.481Z,3.33
2019-04-14T21:58:43.433Z,3.29
2019-04-14T22:01:35.484Z,3.26
2019-04-14T22:04:03.429Z,3.22
2019-04-14T22:06:31.184Z,3.16
2019-04-14T22:08:57.076Z,3.13
2019-04-14T22:11:25.033Z,3.10
2019-04-14T22:13:51.657Z,3.07
2019-04-14T22:16:17.546Z,3.04
2019-04-14T22:18:43.672Z,2.90
2019-04-14T22:21:09.548Z,2.96
2019-04-14T22:23:35.874Z,2.92
2019-04-14T22:26:02.104Z,2.88
2019-04-14T22:28:28.053Z,2.85
2019-04-14T22:30:54.049Z,2.83
2019-04-14T22:33:20.040Z,2.79
2019-04-14T22:35:45.866Z,2.76
2019-04-14T22:38:11.720Z,2.72
2019-04-14T22:40:37.788Z,2.69
2019-04-14T22:43:03.932Z,2.65
2019-04-14T22:45:29.892Z,2.62
2019-04-14T22:47:55.926Z,2.57
2019-04-14T22:50:21.770Z,2.54
2019-04-14T22:52:47.646Z,2.52
2019-04-14T22:55:13.706Z,2.50
2019-04-14T22:57:39.671Z,2.48
2019-04-14T23:00:11.267Z,2.46
2019-04-14T23:02:48.116Z,2.44
2019-04-14T23:05:32.174Z,2.38
2019-04-14T23:08:00.320Z,2.36
2019-04-14T23:10:30.932Z,2.31
2019-04-14T23:13:04.859Z,2.26
2019-04-14T23:15:48.974Z,2.25
2019-04-14T23:18:19.782Z,2.22
2019-04-14T23:20:47.550Z,2.19
2019-04-14T23:23:31.974Z,2.15
2019-04-14T23:25:57.970Z,2.12
2019-04-14T23:28:23.852Z,2.08
2019-04-14T23:30:49.862Z,2.04
2019-04-14T23:33:15.860Z,2.02
2019-04-14T23:35:41.729Z,2.00
2019-04-14T23:38:08.055Z,1.95
2019-04-14T23:40:34.005Z,1.92
2019-04-14T23:42:59.945Z,1.90
2019-04-14T23:45:25.923Z,1.87
2019-04-14T23:47:51.813Z,1.86
2019-04-14T23:50:17.797Z,1.83
2019-04-14T23:52:43.926Z,1.82
2019-04-14T23:55:09.984Z,1.79
2019-04-14T23:57:35.867Z,1.77
